Time,TemperatureF,DewpointF,PressureIn,WindDirection,WindDirectionDegrees,WindSpeedMPH,WindSpeedGustMPH,Humidity,HourlyPrecipIn,Conditions,Clouds,dailyrainin,SoftwareType,DateUTC
2015-05-25 00:04:00,68.4,48.5,29.65,ESE,112,6.5,6.5,49,0.00,,---,0.00,VWS V14.00,2015-05-25 07:04:00,
2015-05-25 00:09:00,68.2,49.4,29.65,South,180,6.0,8.5,51,0.00,,---,0.00,VWS V14.00,2015-05-25 07:09:00,
2015-05-25 00:14:00,68.0,49.2,29.65,East,90,6.0,11.0,51,0.00,,---,0.00,VWS V14.00,2015-05-25 07:14:00,
2015-05-25 00:19:00,67.6,49.4,29.65,SE,135,6.5,10.7,52,0.00,,---,0.00,VWS V14.00,2015-05-25 07:19:00,
2015-05-25 00:24:00,67.5,49.2,29.65,SSE,158,6.3,10.7,52,0.00,,---,0.00,VWS V14.00,2015-05-25 07:24:00,
2015-05-25 00:30:00,67.1,48.9,29.65,ESE,112,4.9,10.1,52,0.00,,---,0.00,VWS V14.00,2015-05-25 07:30:00,
2015-05-25 00:35:00,66.7,49.1,29.65,SE,135,5.6,10.3,53,0.00,,---,0.00,VWS V14.00,2015-05-25 07:35:00,
2015-05-25 00:40:00,66.6,49.4,29.65,SE,135,5.4,9.8,54,0.00,,---,0.00,VWS V14.00,2015-05-25 07:40:00,
2015-05-25 00:45:00,66.2,49.6,29.65,South,180,12.1,12.1,55,0.00,,---,0.00,VWS V14.00,2015-05-25 07:45:00,
2015-05-25 00:50:00,65.8,49.7,29.65,SE,135,6.0,10.7,56,0.00,,---,0.00,VWS V14.00,2015-05-25 07:50:00,
2015-05-25 00:55:00,65.7,49.6,29.65,SSE,158,5.4,5.6,56,0.00,,---,0.00,VWS V14.00,2015-05-25 07:55:00,
2015-05-25 01:00:00,65.5,49.9,29.65,SE,135,10.1,10.1,57,0.00,,---,0.00,VWS V14.00,2015-05-25 08:00:00,
2015-05-25 01:05:00,65.1,49.5,29.65,SE,135,3.6,6.5,57,0.00,,---,0.00,VWS V14.00,2015-05-25 08:05:00,
2015-05-25 01:15:00,64.8,49.2,29.65,SE,135,10.1,11.0,57,0.00,,---,0.00,VWS V14.00,2015-05-25 08:15:00,
2015-05-25 01:20:00,64.4,48.8,29.65,SSE,158,4.9,7.6,57,0.00,,---,0.00,VWS V14.00,2015-05-25 08:20:00,
2015-05-25 01:25:00,64.2,49.2,29.65,SE,135,7.2,7.6,58,0.00,,---,0.00,VWS V14.00,2015-05-25 08:25:00,
2015-05-25 01:35:00,63.9,48.8,29.68,SE,135,5.8,5.8,58,0.00,,---,0.00,VWS V14.00,2015-05-25 08:35:00,
2015-05-25 01:40:00,63.7,48.6,29.68,SE,135,7.8,8.1,58,0.00,,---,0.00,VWS V14.00,2015-05-25 08:40:00,
2015-05-25 01:45:00,63.5,48.5,29.68,NE,45,4.0,6.3,58,0.00,,---,0.00,VWS V14.00,2015-05-25 08:45:00,
2015-05-25 01:50:00,63.3,48.3,29.68,SE,135,3.1,3.8,58,0.00,,---,0.00,VWS V14.00,2015-05-25 08:50:00,
2015-05-25 01:55:00,63.1,48.6,29.68,SE,135,6.0,7.4,59,0.00,,---,0.00,VWS V14.00,2015-05-25 08:55:00,
2015-05-25 02:00:00,63.0,48.9,29.68,ESE,112,11.4,11.4,60,0.00,,---,0.00,VWS V14.00,2015-05-25 09:00:00,
2015-05-25 02:05:00,62.8,48.3,29.68,SE,135,6.0,8.1,59,0.00,,---,0.00,VWS V14.00,2015-05-25 09:05:00,
2015-05-25 02:10:00,62.6,48.5,29.68,SE,135,5.4,5.4,60,0.00,,---,0.00,VWS V14.00,2015-05-25 09:10:00,
2015-05-25 02:16:00,62.6,48.5,29.68,SE,135,3.6,4.9,60,0.00,,---,0.00,VWS V14.00,2015-05-25 09:16:00,
2015-05-25 02:22:00,62.4,49.2,29.68,ESE,112,3.1,3.1,62,0.00,,---,0.00,VWS V14.00,2015-05-25 09:22:00,
2015-05-25 02:27:00,62.2,49.1,29.68,SW,225,2.0,5.8,62,0.00,,---,0.00,VWS V14.00,2015-05-25 09:27:00,
2015-05-25 02:32:00,62.2,49.1,29.68,ESE,112,4.7,4.7,62,0.00,,---,0.00,VWS V14.00,2015-05-25 09:32:00,
2015-05-25 02:37:00,62.1,48.9,29.68,South,180,3.4,3.4,62,0.00,,---,0.00,VWS V14.00,2015-05-25 09:37:00,
2015-05-25 02:42:00,62.1,48.5,29.68,SSE,158,3.1,6.0,61,0.00,,---,0.00,VWS V14.00,2015-05-25 09:42:00,
2015-05-25 02:47:00,62.1,48.9,29.68,SE,135,6.0,7.6,62,0.00,,---,0.00,VWS V14.00,2015-05-25 09:47:00,
2015-05-25 02:53:00,61.9,48.7,29.68,SE,135,5.4,5.4,62,0.00,,---,0.00,VWS V14.00,2015-05-25 09:53:00,
2015-05-25 02:58:00,61.9,48.7,29.68,SE,135,2.5,4.0,62,0.00,,---,0.00,VWS V14.00,2015-05-25 09:58:00,
2015-05-25 03:03:00,61.7,49.0,29.68,SE,135,3.8,3.8,63,0.00,,---,0.00,VWS V14.00,2015-05-25 10:03:00,
2015-05-25 03:09:00,61.5,48.8,29.68,ENE,68,4.3,4.3,63,0.00,,---,0.00,VWS V14.00,2015-05-25 10:09:00,
2015-05-25 03:14:00,61.3,49.1,29.68,ENE,68,3.6,3.6,64,0.00,,---,0.00,VWS V14.00,2015-05-25 10:14:00,
2015-05-25 03:19:00,61.2,48.5,29.68,SE,135,2.5,2.7,63,0.00,,---,0.00,VWS V14.00,2015-05-25 10:19:00,
2015-05-25 03:24:00,61.0,48.3,29.68,SE,135,2.9,2.9,63,0.00,,---,0.00,VWS V14.00,2015-05-25 10:24:00,
2015-05-25 03:29:00,60.8,48.1,29.68,SE,135,2.7,2.7,63,0.00,,---,0.00,VWS V14.00,2015-05-25 10:29:00,
2015-05-25 03:34:00,60.6,48.4,29.68,South,180,2.7,4.3,64,0.00,,---,0.00,VWS V14.00,2015-05-25 10:34:00,
2015-05-25 03:39:00,60.3,48.0,29.68,SSE,158,4.3,6.0,64,0.00,,---,0.00,VWS V14.00,2015-05-25 10:39:00,
2015-05-25 03:44:00,59.9,48.5,29.68,SE,135,8.5,8.5,66,0.00,,---,0.00,VWS V14.00,2015-05-25 10:44:00,
2015-05-25 03:49:00,59.9,48.5,29.68,South,180,8.5,8.5,66,0.00,,---,0.00,VWS V14.00,2015-05-25 10:49:00,
2015-05-25 03:54:00,59.7,48.0,29.68,SSE,158,3.8,4.3,65,0.00,,---,0.00,VWS V14.00,2015-05-25 10:54:00,
2015-05-25 03:59:00,59.5,47.8,29.71,SE,135,6.5,6.5,65,0.00,,---,0.00,VWS V14.00,2015-05-25 10:59:00,
2015-05-25 04:04:00,59.4,48.0,29.71,SE,135,8.5,8.5,66,0.00,,---,0.00,VWS V14.00,2015-05-25 11:04:00,
2015-05-25 04:09:00,59.2,47.8,29.71,SE,135,2.9,6.5,66,0.00,,---,0.00,VWS V14.00,2015-05-25 11:09:00,
2015-05-25 04:14:00,59.2,47.8,29.71,ESE,112,1.3,3.6,66,0.00,,---,0.00,VWS V14.00,2015-05-25 11:14:00,
2015-05-25 04:19:00,59.0,47.7,29.71,SE,135,3.4,3.4,66,0.00,,---,0.00,VWS V14.00,2015-05-25 11:19:00,
2015-05-25 04:25:00,58.8,47.9,29.71,SE,135,3.1,3.1,67,0.00,,---,0.00,VWS V14.00,2015-05-25 11:25:00,
2015-05-25 04:31:00,58.6,47.7,29.71,East,90,3.1,3.1,67,0.00,,---,0.00,VWS V14.00,2015-05-25 11:31:00,
2015-05-25 04:36:00,58.5,47.6,29.71,SE,135,3.4,3.4,67,0.00,,---,0.00,VWS V14.00,2015-05-25 11:36:00,
2015-05-25 04:41:00,58.5,47.6,29.71,SE,135,3.1,3.8,67,0.00,,---,0.00,VWS V14.00,2015-05-25 11:41:00,
2015-05-25 04:46:00,58.3,47.8,29.71,SE,135,3.8,3.8,68,0.00,,---,0.00,VWS V14.00,2015-05-25 11:46:00,
2015-05-25 04:51:00,57.9,47.4,29.71,SE,135,2.2,2.9,68,0.00,,---,0.00,VWS V14.00,2015-05-25 11:51:00,
2015-05-25 04:56:00,57.9,47.4,29.71,SSE,158,1.6,3.6,68,0.00,,---,0.00,VWS V14.00,2015-05-25 11:56:00,
2015-05-25 05:01:00,57.7,47.7,29.71,SE,135,2.5,2.7,69,0.00,,---,0.00,VWS V14.00,2015-05-25 12:01:00,
2015-05-25 05:06:00,57.7,47.7,29.71,SE,135,0.9,2.0,69,0.00,,---,0.00,VWS V14.00,2015-05-25 12:06:00,
2015-05-25 05:12:00,57.6,47.5,29.71,SSE,158,0.0,2.0,69,0.00,,---,0.00,VWS V14.00,2015-05-25 12:12:00,
2015-05-25 05:17:00,57.6,47.5,29.71,SSE,158,1.1,1.3,69,0.00,,---,0.00,VWS V14.00,2015-05-25 12:17:00,
2015-05-25 05:27:00,57.4,47.3,29.71,SSE,158,1.3,1.3,69,0.00,,---,0.00,VWS V14.00,2015-05-25 12:27:00,
2015-05-25 05:32:00,57.2,47.1,29.71,SSE,158,0.0,0.0,69,0.00,,---,0.00,VWS V14.00,2015-05-25 12:32:00,
2015-05-25 05:37:00,56.8,47.2,29.71,SSE,158,0.0,0.0,70,0.00,,---,0.00,VWS V14.00,2015-05-25 12:37:00,
2015-05-25 05:42:00,56.8,47.2,29.71,SSE,158,0.0,0.0,70,0.00,,---,0.00,VWS V14.00,2015-05-25 12:42:00,
2015-05-25 05:47:00,56.7,47.4,29.71,SSE,158,0.0,0.0,71,0.00,,---,0.00,VWS V14.00,2015-05-25 12:47:00,
2015-05-25 05:52:00,56.7,47.0,29.71,SSE,158,0.0,0.0,70,0.00,,---,0.00,VWS V14.00,2015-05-25 12:52:00,
2015-05-25 05:58:00,56.5,46.8,29.74,East,90,2.2,3.1,70,0.00,,---,0.00,VWS V14.00,2015-05-25 12:58:00,
2015-05-25 06:03:00,56.7,47.4,29.74,SE,135,1.1,1.6,71,0.00,,---,0.00,VWS V14.00,2015-05-25 13:03:00,
2015-05-25 06:08:00,56.7,47.4,29.74,SE,135,0.0,0.0,71,0.00,,---,0.00,VWS V14.00,2015-05-25 13:08:00,
2015-05-25 06:13:00,56.8,47.5,29.74,SE,135,1.1,1.1,71,0.00,,---,0.00,VWS V14.00,2015-05-25 13:13:00,
2015-05-25 06:19:00,56.8,47.9,29.74,SE,135,0.0,1.6,72,0.00,,---,0.00,VWS V14.00,2015-05-25 13:19:00,
2015-05-25 06:24:00,57.0,48.1,29.74,SE,135,0.0,0.9,72,0.00,,---,0.00,VWS V14.00,2015-05-25 13:24:00,
2015-05-25 06:29:00,57.2,48.3,29.74,ENE,68,0.0,2.2,72,0.00,,---,0.00,VWS V14.00,2015-05-25 13:29:00,
2015-05-25 06:34:00,57.4,48.4,29.74,East,90,1.3,2.7,72,0.00,,---,0.00,VWS V14.00,2015-05-25 13:34:00,
2015-05-25 06:40:00,57.6,48.6,29.74,ENE,68,1.3,2.5,72,0.00,,---,0.00,VWS V14.00,2015-05-25 13:40:00,
2015-05-25 06:46:00,57.9,49.3,29.74,SE,135,4.0,4.3,73,0.00,,---,0.00,VWS V14.00,2015-05-25 13:46:00,
2015-05-25 06:51:00,57.9,49.3,29.74,ESE,112,1.6,4.3,73,0.00,,---,0.00,VWS V14.00,2015-05-25 13:51:00,
2015-05-25 06:56:00,58.5,49.8,29.74,South,180,2.5,3.1,73,0.00,,---,0.00,VWS V14.00,2015-05-25 13:56:00,
2015-05-25 07:01:00,59.2,50.2,29.74,SE,135,2.2,3.4,72,0.00,,---,0.00,VWS V14.00,2015-05-25 14:01:00,
2015-05-25 07:06:00,59.7,50.7,29.74,East,90,2.5,4.0,72,0.00,,---,0.00,VWS V14.00,2015-05-25 14:06:00,
2015-05-25 07:11:00,60.4,51.0,29.74,East,90,3.4,3.4,71,0.00,,---,0.00,VWS V14.00,2015-05-25 14:11:00,
2015-05-25 07:16:00,61.2,50.5,29.74,ESE,112,4.9,5.6,68,0.00,,---,0.00,VWS V14.00,2015-05-25 14:16:00,
2015-05-25 07:22:00,62.2,50.3,29.74,ESE,112,2.5,3.6,65,0.00,,---,0.00,VWS V14.00,2015-05-25 14:22:00,
2015-05-25 07:27:00,62.6,49.4,29.74,ESE,112,6.0,6.0,62,0.00,,---,0.00,VWS V14.00,2015-05-25 14:27:00,
2015-05-25 07:32:00,63.1,49.0,29.74,East,90,7.2,7.2,60,0.00,,---,0.00,VWS V14.00,2015-05-25 14:32:00,
2015-05-25 07:37:00,63.7,48.2,29.74,East,90,2.7,5.6,57,0.00,,---,0.00,VWS V14.00,2015-05-25 14:37:00,
2015-05-25 07:42:00,64.4,48.8,29.74,South,180,4.3,5.6,57,0.00,,---,0.00,VWS V14.00,2015-05-25 14:42:00,
2015-05-25 07:47:00,64.4,47.9,29.74,South,180,5.4,5.4,55,0.00,,---,0.00,VWS V14.00,2015-05-25 14:47:00,
2015-05-25 07:52:00,64.2,47.2,29.74,East,90,2.7,5.8,54,0.00,,---,0.00,VWS V14.00,2015-05-25 14:52:00,
2015-05-25 07:57:00,64.4,47.4,29.74,SE,135,4.3,6.0,54,0.00,,---,0.00,VWS V14.00,2015-05-25 14:57:00,
2015-05-25 08:02:00,64.8,48.2,29.74,SSE,158,6.3,6.3,55,0.00,,---,0.00,VWS V14.00,2015-05-25 15:02:00,
2015-05-25 08:07:00,64.8,47.8,29.74,East,90,3.4,6.0,54,0.00,,---,0.00,VWS V14.00,2015-05-25 15:07:00,
2015-05-25 08:12:00,65.1,48.1,29.74,SE,135,2.0,4.3,54,0.00,,---,0.00,VWS V14.00,2015-05-25 15:12:00,
2015-05-25 08:18:00,65.5,47.9,29.74,NE,45,4.3,4.3,53,0.00,,---,0.00,VWS V14.00,2015-05-25 15:18:00,
2015-05-25 08:23:00,66.0,47.9,29.74,ESE,112,4.0,4.9,52,0.00,,---,0.00,VWS V14.00,2015-05-25 15:23:00,
2015-05-25 08:28:00,66.4,47.2,29.74,SE,135,9.6,9.6,50,0.00,,---,0.00,VWS V14.00,2015-05-25 15:28:00,
2015-05-25 08:33:00,66.6,47.4,29.74,SE,135,6.5,6.5,50,0.00,,---,0.00,VWS V14.00,2015-05-25 15:33:00,
2015-05-25 08:39:00,67.5,49.2,29.74,SSE,158,6.3,6.3,52,0.00,,---,0.00,VWS V14.00,2015-05-25 15:39:00,
2015-05-25 08:44:00,68.2,49.4,29.74,South,180,5.8,6.0,51,0.00,,---,0.00,VWS V14.00,2015-05-25 15:44:00,
2015-05-25 08:49:00,69.1,49.7,29.74,SSE,158,3.4,4.3,50,0.00,,---,0.00,VWS V14.00,2015-05-25 15:49:00,
2015-05-25 08:54:00,69.1,48.0,29.74,South,180,4.3,7.8,47,0.00,,---,0.00,VWS V14.00,2015-05-25 15:54:00,